Time;durP1;ratioP1;P1;durP2;ratioP2;P2;SDS_P1;SDS_P2;PMS_P1;PMS_P2;Temp;Humidity;BMP_temperature;BMP_pressure;BME280_temperature;BME280_humidity;BME280_pressure;Samples;Min_cycle;Max_cycle;Signal;HPM_P1;HPM_P2
2023/12/06 00:02:09;;;;;;;0.73;0.73;;;3.70;99.90;;;;;;5016078;28;20177;-83
2023/12/06 00:04:34;;;;;;;0.77;0.77;;;3.70;99.90;;;;;;5016479;28;20168;-82
2023/12/06 00:07:00;;;;;;;0.80;0.80;;;3.70;99.90;;;;;;4998238;28;20685;-83
2023/12/06 00:09:25;;;;;;;0.80;0.80;;;3.70;99.90;;;;;;5015950;28;20173;-82
2023/12/06 00:11:51;;;;;;;0.70;0.70;;;3.70;99.90;;;;;;5016124;28;20201;-84
2023/12/06 00:14:16;;;;;;;0.80;0.80;;;3.80;97.30;;;;;;5016432;28;20204;-84
2023/12/06 00:16:42;;;;;;;0.70;0.70;;;3.70;97.80;;;;;;5015101;28;20279;-83
2023/12/06 00:19:08;;;;;;;0.80;0.80;;;3.70;99.90;;;;;;5016346;28;20180;-83
2023/12/06 00:21:34;;;;;;;0.83;0.83;;;3.70;99.90;;;;;;5016581;28;20215;-82
2023/12/06 00:23:59;;;;;;;0.70;0.70;;;3.70;99.90;;;;;;5016374;28;20215;-83
2023/12/06 00:26:25;;;;;;;0.80;0.80;;;3.70;99.90;;;;;;5015281;28;20258;-82
2023/12/06 00:28:51;;;;;;;0.70;0.70;;;3.70;99.90;;;;;;5016040;28;20215;-82
2023/12/06 00:31:17;;;;;;;0.80;0.80;;;3.70;99.90;;;;;;5016452;28;20176;-82
2023/12/06 00:33:43;;;;;;;0.80;0.80;;;3.70;99.90;;;;;;5016804;28;20219;-82
2023/12/06 00:36:10;;;;;;;0.80;0.80;;;3.70;93.80;;;;;;5015217;28;20196;-83
2023/12/06 00:38:36;;;;;;;0.80;0.80;;;3.70;99.90;;;;;;5016404;28;20183;-84
2023/12/06 00:41:01;;;;;;;0.80;0.80;;;3.70;99.90;;;;;;4999344;28;20191;-83
2023/12/06 00:43:27;;;;;;;0.80;0.80;;;3.70;96.90;;;;;;4998787;28;20176;-83
2023/12/06 00:45:54;;;;;;;0.80;0.80;;;3.70;99.90;;;;;;5019526;28;20207;-82
2023/12/06 00:48:19;;;;;;;0.80;0.80;;;3.70;99.90;;;;;;5009260;28;20336;-81
2023/12/06 00:50:45;;;;;;;0.80;0.80;;;3.70;99.90;;;;;;5021118;28;20192;-83
2023/12/06 00:53:10;;;;;;;0.80;0.80;;;3.70;99.90;;;;;;5018332;28;20268;-83
2023/12/06 00:55:36;;;;;;;0.80;0.80;;;3.70;99.90;;;;;;5018071;28;20685;-84
2023/12/06 00:58:02;;;;;;;0.80;0.80;;;3.70;99.90;;;;;;4999756;28;20255;-83
2023/12/06 01:00:27;;;;;;;0.80;0.80;;;3.70;99.90;;;;;;5017369;28;20182;-83
2023/12/06 01:02:53;;;;;;;0.70;0.70;;;3.70;99.90;;;;;;5018743;28;20172;-82
2023/12/06 01:05:18;;;;;;;0.77;0.77;;;3.70;99.90;;;;;;5030112;28;20172;-82
2023/12/06 01:07:44;;;;;;;0.70;0.70;;;3.70;99.90;;;;;;5035235;28;20372;-83
2023/12/06 01:10:10;;;;;;;0.80;0.80;;;3.70;99.90;;;;;;5035231;28;20208;-83
2023/12/06 01:12:35;;;;;;;0.70;0.70;;;3.70;99.90;;;;;;5005060;28;20208;-83
2023/12/06 01:15:03;;;;;;;0.70;0.70;;;3.70;99.90;;;;;;5015984;28;20180;-83
2023/12/06 01:17:28;;;;;;;0.70;0.70;;;3.70;99.90;;;;;;5017013;28;20201;-83
2023/12/06 01:19:54;;;;;;;0.80;0.80;;;3.70;99.90;;;;;;5016378;28;20184;-83
2023/12/06 01:22:19;;;;;;;0.80;0.80;;;3.70;99.90;;;;;;5016369;28;20643;-84
2023/12/06 01:24:47;;;;;;;0.70;0.70;;;3.60;99.90;;;;;;5016298;28;20182;-82
2023/12/06 01:27:12;;;;;;;0.80;0.80;;;3.60;99.90;;;;;;4998821;28;20220;-85
2023/12/06 01:29:38;;;;;;;0.70;0.70;;;3.60;99.90;;;;;;5016859;28;20639;-82
2023/12/06 01:32:04;;;;;;;0.80;0.80;;;3.60;99.90;;;;;;5016482;28;20729;-84
2023/12/06 01:34:29;;;;;;;0.80;0.80;;;3.60;99.90;;;;;;4998851;28;20181;-84
2023/12/06 01:36:55;;;;;;;0.80;0.80;;;3.50;99.90;;;;;;5016074;28;20283;-84
2023/12/06 01:39:20;;;;;;;0.80;0.80;;;3.50;99.90;;;;;;5016568;28;20252;-84
2023/12/06 01:41:48;;;;;;;0.80;0.80;;;3.50;99.90;;;;;;5002439;28;20646;-83
2023/12/06 01:44:13;;;;;;;0.70;0.70;;;3.50;99.90;;;;;;5033395;28;20163;-84
2023/12/06 01:46:39;;;;;;;0.70;0.70;;;3.40;99.90;;;;;;5032034;28;20200;-85
2023/12/06 01:49:08;;;;;;;0.80;0.80;;;3.50;99.90;;;;;;5002916;28;20263;-85
2023/12/06 01:51:34;;;;;;;0.80;0.80;;;3.40;99.90;;;;;;5018052;28;20208;-83
2023/12/06 01:53:59;;;;;;;0.83;0.83;;;3.50;99.90;;;;;;5018031;28;20211;-84
2023/12/06 01:56:26;;;;;;;0.70;0.70;;;3.50;99.90;;;;;;5000684;28;20701;-83
2023/12/06 01:58:53;;;;;;;0.80;0.80;;;3.50;99.90;;;;;;5017937;28;20705;-84
2023/12/06 02:01:19;;;;;;;0.80;0.80;;;3.40;99.90;;;;;;5016753;28;20204;-83
2023/12/06 02:03:45;;;;;;;0.80;0.80;;;3.40;99.90;;;;;;5018147;28;20180;-83
2023/12/06 02:06:10;;;;;;;0.77;0.77;;;3.50;99.90;;;;;;5019980;28;20212;-83
2023/12/06 02:08:36;;;;;;;0.80;0.80;;;3.40;99.90;;;;;;5020393;28;20196;-83
2023/12/06 02:11:03;;;;;;;0.80;0.80;;;3.40;99.90;;;;;;5002590;28;20240;-84
2023/12/06 02:13:29;;;;;;;0.80;0.80;;;3.40;99.90;;;;;;5020507;28;20259;-82
2023/12/06 02:15:57;;;;;;;0.70;0.70;;;3.50;99.90;;;;;;5019354;28;20286;-86
2023/12/06 02:18:24;;;;;;;0.90;0.90;;;3.40;99.90;;;;;;5020156;28;20175;-84
2023/12/06 02:20:53;;;;;;;0.80;0.80;;;3.40;99.90;;;;;;5001926;28;20188;-83
2023/12/06 02:23:22;;;;;;;0.80;0.80;;;3.40;99.90;;;;;;5019365;28;20181;-83
2023/12/06 02:25:48;;;;;;;0.80;0.80;;;3.40;99.90;;;;;;5001690;28;20195;-85
2023/12/06 02:28:14;;;;;;;0.70;0.70;;;3.40;99.90;;;;;;5019567;28;20255;-83
2023/12/06 02:30:39;;;;;;;0.80;0.80;;;3.40;99.90;;;;;;5001735;28;20180;-84
2023/12/06 02:33:05;;;;;;;0.80;0.80;;;3.50;99.90;;;;;;5019824;28;20215;-83
2023/12/06 02:35:35;;;;;;;0.90;0.90;;;3.50;99.90;;;;;;5018984;28;20196;-83
2023/12/06 02:38:03;;;;;;;0.80;0.80;;;3.40;99.90;;;;;;5019668;28;20185;-84
2023/12/06 02:40:31;;;;;;;0.80;0.80;;;3.50;99.90;;;;;;5019111;28;20172;-83
2023/12/06 02:42:58;;;;;;;0.80;0.80;;;3.50;99.90;;;;;;5018911;28;20815;-86
2023/12/06 02:45:24;;;;;;;0.80;0.80;;;3.50;99.90;;;;;;5019889;28;20188;-84
2023/12/06 02:47:49;;;;;;;0.80;0.80;;;3.50;99.90;;;;;;5020585;28;20181;-83
2023/12/06 02:50:15;;;;;;;0.73;0.73;;;3.50;99.90;;;;;;5020868;28;20564;-83
2023/12/06 02:52:41;;;;;;;0.80;0.80;;;3.50;99.90;;;;;;5035583;28;20212;-82
2023/12/06 02:55:06;;;;;;;0.90;0.90;;;3.50;99.90;;;;;;5039251;28;20191;-82
2023/12/06 02:57:32;;;;;;;0.80;0.80;;;3.50;99.90;;;;;;5039286;28;20195;-83
2023/12/06 02:59:57;;;;;;;0.77;0.77;;;3.50;99.90;;;;;;5022505;28;20218;-83
2023/12/06 03:02:23;;;;;;;0.80;0.80;;;3.50;99.90;;;;;;5039100;28;20181;-82
2023/12/06 03:04:48;;;;;;;0.80;0.80;;;3.50;99.90;;;;;;5039072;28;20207;-83
2023/12/06 03:07:14;;;;;;;0.80;0.80;;;3.50;99.90;;;;;;5039266;28;20216;-82
2023/12/06 03:09:39;;;;;;;1.00;1.00;;;3.40;99.90;;;;;;5032216;28;20185;-84
2023/12/06 03:12:07;;;;;;;0.80;0.80;;;3.50;99.90;;;;;;5019541;28;20200;-82
2023/12/06 03:14:32;;;;;;;0.67;0.67;;;3.50;99.90;;;;;;5018632;28;20176;-84
2023/12/06 03:16:58;;;;;;;0.80;0.80;;;3.50;99.90;;;;;;5018427;28;20200;-84
2023/12/06 03:19:24;;;;;;;0.80;0.80;;;3.50;99.90;;;;;;5019123;28;20187;-84
2023/12/06 03:21:50;;;;;;;0.80;0.80;;;3.50;99.90;;;;;;5018435;28;20212;-83
2023/12/06 03:24:15;;;;;;;0.90;0.90;;;3.50;99.90;;;;;;5019148;28;20172;-84
2023/12/06 03:26:41;;;;;;;0.70;0.70;;;3.50;99.90;;;;;;5018865;28;20215;-88
2023/12/06 03:29:06;;;;;;;0.80;0.80;;;3.50;99.90;;;;;;5002029;28;20260;-86
2023/12/06 03:31:32;;;;;;;0.77;0.77;;;3.60;99.90;;;;;;5019766;28;20196;-85
2023/12/06 03:33:57;;;;;;;0.90;0.90;;;3.60;99.90;;;;;;5019205;28;20187;-86
2023/12/06 03:36:23;;;;;;;0.87;0.87;;;3.90;99.90;;;;;;5020103;28;20196;-85
2023/12/06 03:38:48;;;;;;;0.83;0.83;;;3.60;99.90;;;;;;5020351;28;20172;-85
2023/12/06 03:41:14;;;;;;;0.77;0.77;;;3.50;99.90;;;;;;5019405;28;20272;-85
2023/12/06 03:43:40;;;;;;;0.80;0.80;;;3.50;99.90;;;;;;5020277;28;20254;-84
2023/12/06 03:46:08;;;;;;;0.90;0.90;;;3.60;99.90;;;;;;5027141;28;20196;-84
2023/12/06 03:48:34;;;;;;;0.80;0.80;;;3.60;99.90;;;;;;5025767;28;20199;-85
2023/12/06 03:50:59;;;;;;;0.77;0.77;;;3.60;99.90;;;;;;5028853;28;20196;-84
2023/12/06 03:53:25;;;;;;;0.80;0.80;;;3.60;99.90;;;;;;5028370;28;20192;-85
2023/12/06 03:55:50;;;;;;;0.83;0.83;;;3.60;99.90;;;;;;5028900;28;20220;-85
2023/12/06 03:58:17;;;;;;;1.00;1.00;;;3.50;99.90;;;;;;5021787;28;20180;-85
2023/12/06 04:00:43;;;;;;;0.80;0.80;;;3.50;99.90;;;;;;5023561;28;20559;-84
2023/12/06 04:03:09;;;;;;;0.80;0.80;;;3.60;99.90;;;;;;5023389;28;20184;-85
2023/12/06 04:05:34;;;;;;;0.90;0.90;;;3.60;99.90;;;;;;5018689;28;20231;-85
2023/12/06 04:08:00;;;;;;;0.70;0.70;;;3.60;99.90;;;;;;5027101;28;20176;-83
2023/12/06 04:10:26;;;;;;;0.80;0.80;;;3.60;99.90;;;;;;5027229;28;20209;-85
2023/12/06 04:12:51;;;;;;;0.80;0.80;;;3.60;99.90;;;;;;5027696;28;20207;-85
2023/12/06 04:15:17;;;;;;;0.80;0.80;;;3.60;99.90;;;;;;5024714;28;20176;-86
2023/12/06 04:17:42;;;;;;;0.70;0.70;;;3.60;99.90;;;;;;5018362;28;20176;-85
2023/12/06 04:20:09;;;;;;;0.80;0.80;;;3.50;99.90;;;;;;5000172;28;20187;-84
2023/12/06 04:22:37;;;;;;;0.90;0.90;;;3.50;99.90;;;;;;5017805;28;20168;-84
2023/12/06 04:25:03;;;;;;;0.70;0.70;;;3.50;99.90;;;;;;4999780;28;20562;-86
2023/12/06 04:27:29;;;;;;;0.73;0.73;;;3.50;99.90;;;;;;5017621;28;20200;-84
2023/12/06 04:29:55;;;;;;;0.80;0.80;;;3.50;99.90;;;;;;5017061;28;20169;-84
2023/12/06 04:32:20;;;;;;;0.83;0.83;;;3.50;99.90;;;;;;5017967;28;20208;-85
2023/12/06 04:34:51;;;;;;;0.90;0.90;;;3.50;99.90;;;;;;5017498;28;20188;-85
2023/12/06 04:37:17;;;;;;;0.80;0.80;;;3.60;99.90;;;;;;5017077;28;20197;-84
2023/12/06 04:39:43;;;;;;;0.80;0.80;;;3.50;99.90;;;;;;5000008;28;20184;-85
2023/12/06 04:42:08;;;;;;;0.70;0.70;;;3.50;99.90;;;;;;5000187;28;20181;-85
2023/12/06 04:44:34;;;;;;;0.83;0.83;;;3.60;99.90;;;;;;5016934;28;20238;-84
2023/12/06 04:46:59;;;;;;;0.80;0.80;;;3.50;99.90;;;;;;5016248;28;20255;-84
2023/12/06 04:49:25;;;;;;;0.70;0.70;;;3.50;99.90;;;;;;5018454;28;20184;-87
2023/12/06 04:51:50;;;;;;;0.80;0.80;;;3.50;99.90;;;;;;5017276;28;20236;-86
2023/12/06 04:54:16;;;;;;;0.80;0.80;;;3.60;99.90;;;;;;5018654;28;20207;-85
2023/12/06 04:56:42;;;;;;;0.80;0.80;;;3.50;99.90;;;;;;5017739;28;20196;-84
2023/12/06 04:59:07;;;;;;;0.80;0.80;;;3.60;99.90;;;;;;5018445;28;20176;-86
2023/12/06 05:01:33;;;;;;;0.80;0.80;;;3.50;99.90;;;;;;5018659;28;20267;-85
2023/12/06 05:03:58;;;;;;;0.80;0.80;;;3.50;99.90;;;;;;5019898;28;20214;-84
2023/12/06 05:06:24;;;;;;;0.70;0.70;;;3.50;99.90;;;;;;5032369;28;20220;-86
2023/12/06 05:08:50;;;;;;;0.70;0.70;;;3.50;99.90;;;;;;5035064;28;20209;-84
2023/12/06 05:11:15;;;;;;;0.80;0.80;;;3.50;99.90;;;;;;5034536;28;20173;-84
2023/12/06 05:13:42;;;;;;;0.70;0.70;;;3.60;99.90;;;;;;5020030;28;20184;-86
2023/12/06 05:16:08;;;;;;;0.80;0.80;;;3.60;99.90;;;;;;5016642;28;20200;-84
2023/12/06 05:18:34;;;;;;;0.77;0.77;;;3.60;99.90;;;;;;5017756;28;20184;-85
2023/12/06 05:20:59;;;;;;;0.80;0.80;;;3.80;99.90;;;;;;5024679;28;20191;-85
2023/12/06 05:23:25;;;;;;;0.80;0.80;;;3.60;99.90;;;;;;5019614;28;20554;-85
2023/12/06 05:25:50;;;;;;;0.80;0.80;;;3.60;99.90;;;;;;5017893;28;20201;-85
2023/12/06 05:28:17;;;;;;;0.80;0.80;;;3.60;99.90;;;;;;5000395;28;20172;-84
2023/12/06 05:30:42;;;;;;;0.70;0.70;;;3.60;99.90;;;;;;4999784;28;20439;-85
2023/12/06 05:33:08;;;;;;;0.80;0.80;;;3.60;99.90;;;;;;5018537;28;20294;-84
2023/12/06 05:35:34;;;;;;;0.70;0.70;;;3.60;99.90;;;;;;5028658;28;20219;-85
2023/12/06 05:37:59;;;;;;;0.80;0.80;;;3.60;99.90;;;;;;5032502;28;20180;-84
2023/12/06 05:40:25;;;;;;;0.90;0.90;;;3.60;99.90;;;;;;5020584;28;20204;-84
2023/12/06 05:42:50;;;;;;;0.80;0.80;;;3.60;99.90;;;;;;5017283;28;20230;-86
2023/12/06 05:45:16;;;;;;;0.70;0.70;;;3.20;99.90;;;;;;5015694;28;20180;-85
2023/12/06 05:47:42;;;;;;;0.80;0.80;;;3.60;99.90;;;;;;5016351;28;20177;-85
2023/12/06 05:50:10;;;;;;;0.80;0.80;;;3.60;99.90;;;;;;5016427;28;20180;-85
2023/12/06 05:52:36;;;;;;;0.80;0.80;;;3.60;99.90;;;;;;5015830;28;20196;-85
2023/12/06 05:55:02;;;;;;;0.70;0.70;;;3.60;99.90;;;;;;5015431;28;20296;-84
2023/12/06 05:57:28;;;;;;;0.70;0.70;;;3.60;99.90;;;;;;5015911;28;20200;-85
2023/12/06 05:59:54;;;;;;;0.80;0.80;;;3.60;99.90;;;;;;5016562;28;20184;-84
2023/12/06 06:02:20;;;;;;;0.73;0.73;;;3.60;99.90;;;;;;5017162;28;20238;-83
2023/12/06 06:04:45;;;;;;;0.90;0.90;;;3.60;99.90;;;;;;4997904;28;20239;-84
2023/12/06 06:07:11;;;;;;;0.77;0.77;;;3.60;99.90;;;;;;5017042;28;20203;-84
2023/12/06 06:09:36;;;;;;;0.70;0.70;;;3.60;99.90;;;;;;5017734;28;20709;-84
2023/12/06 06:12:03;;;;;;;0.80;0.80;;;3.60;99.90;;;;;;5016297;28;20678;-83
2023/12/06 06:14:29;;;;;;;0.80;0.80;;;3.70;99.90;;;;;;4999211;28;20179;-84
2023/12/06 06:16:54;;;;;;;0.80;0.80;;;3.70;99.90;;;;;;5017518;28;20192;-85
2023/12/06 06:19:20;;;;;;;0.80;0.80;;;3.60;99.90;;;;;;5015837;28;20180;-83
2023/12/06 06:21:46;;;;;;;0.77;0.77;;;3.60;99.90;;;;;;5016780;28;20183;-87
2023/12/06 06:24:11;;;;;;;0.87;0.87;;;3.60;99.90;;;;;;5019050;28;20184;-85
2023/12/06 06:26:37;;;;;;;0.70;0.70;;;3.70;99.90;;;;;;5017509;28;20196;-85
2023/12/06 06:29:02;;;;;;;0.70;0.70;;;3.60;99.90;;;;;;4999766;28;20185;-86
2023/12/06 06:31:28;;;;;;;0.70;0.70;;;3.60;99.90;;;;;;5018417;28;20172;-85
2023/12/06 06:33:54;;;;;;;0.70;0.70;;;3.60;99.90;;;;;;5018592;28;20187;-85
2023/12/06 06:36:19;;;;;;;0.70;0.70;;;3.60;99.90;;;;;;5016897;28;20578;-83
2023/12/06 06:38:46;;;;;;;0.70;0.70;;;3.60;99.90;;;;;;5016966;28;20176;-85
2023/12/06 06:41:12;;;;;;;0.80;0.80;;;3.60;99.90;;;;;;5017132;28;20199;-86
2023/12/06 06:43:38;;;;;;;0.70;0.70;;;3.60;99.90;;;;;;5017958;28;20189;-87
2023/12/06 06:46:03;;;;;;;0.80;0.80;;;3.60;99.90;;;;;;4996643;28;20202;-82
2023/12/06 06:48:29;;;;;;;0.80;0.80;;;3.60;99.90;;;;;;4997828;28;20173;-83
2023/12/06 06:50:54;;;;;;;0.80;0.80;;;3.70;99.90;;;;;;5003899;28;20217;-82
2023/12/06 06:53:20;;;;;;;0.80;0.80;;;3.60;99.90;;;;;;5018278;28;20251;-82
2023/12/06 06:55:46;;;;;;;0.70;0.70;;;3.70;99.90;;;;;;5017452;28;20232;-84
2023/12/06 06:58:12;;;;;;;0.80;0.80;;;3.60;99.90;;;;;;5017901;28;20181;-82
2023/12/06 07:00:38;;;;;;;0.80;0.80;;;3.70;99.90;;;;;;5017629;28;20173;-84
2023/12/06 07:03:03;;;;;;;0.80;0.80;;;3.70;99.90;;;;;;5016152;28;20177;-84
2023/12/06 07:05:30;;;;;;;0.80;0.80;;;3.70;99.90;;;;;;5009732;28;20276;-84
2023/12/06 07:07:55;;;;;;;0.80;0.80;;;3.70;99.90;;;;;;5006978;28;20183;-85
2023/12/06 07:10:22;;;;;;;0.70;0.70;;;3.70;99.90;;;;;;5000755;28;20256;-85
2023/12/06 07:12:47;;;;;;;0.70;0.70;;;3.80;99.90;;;;;;4998676;28;20257;-83
2023/12/06 07:15:14;;;;;;;0.77;0.77;;;3.80;99.90;;;;;;4999401;28;20173;-83
2023/12/06 07:17:41;;;;;;;0.80;0.80;;;3.80;99.90;;;;;;4998830;28;20173;-85
2023/12/06 07:20:08;;;;;;;0.80;0.80;;;3.80;99.90;;;;;;5000305;28;20177;-82
2023/12/06 07:22:34;;;;;;;0.70;0.70;;;3.90;99.90;;;;;;5000979;28;20181;-84
2023/12/06 07:25:00;;;;;;;0.73;0.73;;;3.90;99.90;;;;;;5000795;28;20697;-85
2023/12/06 07:27:25;;;;;;;0.80;0.80;;;3.90;99.90;;;;;;5006094;28;20235;-82
2023/12/06 07:29:53;;;;;;;0.80;0.80;;;3.90;99.90;;;;;;5019020;28;20227;-83
2023/12/06 07:32:18;;;;;;;0.80;0.80;;;3.90;99.90;;;;;;5002604;28;20200;-86
2023/12/06 07:34:45;;;;;;;0.80;0.80;;;4.00;99.90;;;;;;5021001;28;20172;-84
2023/12/06 07:37:10;;;;;;;0.80;0.80;;;4.00;99.90;;;;;;5022044;28;20196;-86
2023/12/06 07:39:36;;;;;;;0.80;0.80;;;4.00;99.90;;;;;;5004031;28;20260;-88
2023/12/06 07:42:01;;;;;;;0.70;0.70;;;4.00;99.90;;;;;;5003092;28;20263;-86
2023/12/06 07:44:27;;;;;;;0.80;0.80;;;4.00;99.90;;;;;;5020904;28;20179;-86
2023/12/06 07:46:53;;;;;;;0.80;0.80;;;4.00;99.90;;;;;;5020604;28;20203;-87
2023/12/06 07:49:18;;;;;;;0.80;0.80;;;4.10;99.90;;;;;;5021665;28;20183;-86
2023/12/06 07:51:44;;;;;;;0.77;0.77;;;4.10;99.90;;;;;;5021608;28;20197;-85
2023/12/06 07:54:09;;;;;;;0.70;0.70;;;4.10;99.90;;;;;;5018408;28;20192;-86
2023/12/06 07:56:35;;;;;;;0.80;0.80;;;4.10;99.90;;;;;;5038827;28;20189;-88
2023/12/06 07:59:02;;;;;;;0.70;0.70;;;4.10;99.90;;;;;;5039482;28;20169;-88
2023/12/06 08:01:31;;;;;;;0.80;0.80;;;4.10;99.90;;;;;;5039371;28;20176;-88
2023/12/06 08:03:57;;;;;;;0.73;0.73;;;4.10;99.90;;;;;;5040176;28;20152;-82
2023/12/06 08:06:24;;;;;;;0.80;0.80;;;4.10;99.90;;;;;;5022436;28;20211;-82
2023/12/06 08:08:53;;;;;;;0.70;0.70;;;4.40;99.90;;;;;;5029402;28;20662;-85
2023/12/06 08:11:19;;;;;;;0.70;0.70;;;4.60;99.90;;;;;;5020410;28;20244;-85
2023/12/06 08:13:47;;;;;;;0.70;0.70;;;4.40;85.50;;;;;;5002202;28;20219;-86
2023/12/06 08:16:12;;;;;;;0.70;0.70;;;4.40;92.70;;;;;;5000892;28;20285;-84
2023/12/06 08:18:40;;;;;;;0.70;0.70;;;4.40;76.20;;;;;;5018726;28;20660;-84
2023/12/06 08:21:08;;;;;;;0.73;0.73;;;4.40;84.10;;;;;;5018454;28;20184;-84
2023/12/06 08:23:34;;;;;;;0.80;0.80;;;4.40;88.90;;;;;;5016679;28;20569;-83
2023/12/06 08:26:00;;;;;;;0.70;0.70;;;4.50;80.70;;;;;;4999289;28;20205;-84
2023/12/06 08:28:25;;;;;;;0.80;0.80;;;4.70;94.30;;;;;;5017455;28;20183;-83
2023/12/06 08:30:51;;;;;;;0.80;0.80;;;4.70;35.00;;;;;;5019336;28;20188;-84
2023/12/06 08:33:19;;;;;;;0.73;0.73;;;4.80;51.80;;;;;;5001336;28;20216;-84
2023/12/06 08:35:45;;;;;;;0.80;0.80;;;4.70;35.00;;;;;;5017037;28;20602;-84
2023/12/06 08:38:11;;;;;;;0.70;0.70;;;4.80;48.90;;;;;;5016797;28;20180;-82
2023/12/06 08:40:38;;;;;;;0.70;0.70;;;4.70;30.00;;;;;;5016692;28;20594;-82
2023/12/06 08:43:03;;;;;;;0.70;0.70;;;4.70;25.80;;;;;;5016760;28;20651;-83
2023/12/06 08:45:29;;;;;;;0.73;0.73;;;4.90;29.00;;;;;;5016477;28;20231;-84
2023/12/06 08:47:54;;;;;;;0.63;0.63;;;4.80;3.60;;;;;;5016403;28;20247;-83
2023/12/06 08:50:21;;;;;;;0.70;0.70;;;4.80;34.30;;;;;;5016497;28;20211;-82
2023/12/06 08:52:46;;;;;;;0.77;0.77;;;4.80;22.60;;;;;;5016784;28;20577;-83
2023/12/06 08:55:12;;;;;;;0.80;0.80;;;4.90;13.40;;;;;;5016380;28;20179;-83
2023/12/06 08:57:38;;;;;;;0.80;0.80;;;4.90;11.30;;;;;;5016720;28;20208;-84
2023/12/06 09:00:07;;;;;;;0.70;0.70;;;4.80;23.10;;;;;;5017325;28;20164;-83
2023/12/06 09:02:35;;;;;;;0.70;0.70;;;4.80;36.40;;;;;;5016816;28;20202;-83
2023/12/06 09:05:01;;;;;;;0.70;0.70;;;4.70;1.00;;;;;;5017214;28;20207;-84
2023/12/06 09:07:27;;;;;;;0.70;0.70;;;4.70;1.00;;;;;;5026075;28;20192;-83
2023/12/06 09:09:52;;;;;;;0.70;0.70;;;4.80;1.00;;;;;;5028675;28;20191;-84
2023/12/06 09:12:18;;;;;;;0.70;0.70;;;4.80;1.00;;;;;;5024666;28;20236;-84
2023/12/06 09:14:43;;;;;;;0.80;0.80;;;4.90;1.00;;;;;;5017249;28;20187;-84
2023/12/06 09:17:09;;;;;;;0.80;0.80;;;4.70;1.00;;;;;;5017938;28;20196;-83
2023/12/06 09:19:35;;;;;;;0.80;0.80;;;4.70;1.00;;;;;;5017686;28;20239;-83
2023/12/06 09:22:00;;;;;;;0.80;0.80;;;4.80;1.00;;;;;;5018442;28;20184;-84
2023/12/06 09:24:26;;;;;;;0.87;0.87;;;4.60;1.00;;;;;;5017968;28;20226;-83
2023/12/06 09:26:51;;;;;;;0.70;0.70;;;4.80;1.00;;;;;;5000643;28;20197;-85
2023/12/06 09:29:17;;;;;;;0.77;0.77;;;4.70;1.00;;;;;;5028265;28;20168;-84
2023/12/06 09:31:43;;;;;;;0.70;0.70;;;4.70;1.00;;;;;;5020245;28;20184;-84
2023/12/06 09:34:09;;;;;;;0.80;0.80;;;5.30;1.00;;;;;;5034338;28;20211;-83
2023/12/06 09:36:35;;;;;;;0.70;0.70;;;4.70;1.00;;;;;;5016081;28;20200;-84
2023/12/06 09:39:00;;;;;;;0.70;0.70;;;4.70;1.00;;;;;;5016699;28;20592;-84
2023/12/06 09:41:28;;;;;;;0.80;0.80;;;4.60;1.00;;;;;;5026038;28;20176;-84
2023/12/06 09:43:54;;;;;;;0.80;0.80;;;4.60;1.00;;;;;;5016483;28;20638;-83
2023/12/06 09:46:20;;;;;;;0.80;0.80;;;4.50;1.00;;;;;;4998088;28;20216;-83
2023/12/06 09:48:47;;;;;;;0.80;0.80;;;4.50;1.00;;;;;;5014395;28;20177;-85
2023/12/06 09:51:14;;;;;;;0.80;0.80;;;4.60;1.00;;;;;;5014573;28;20603;-83
2023/12/06 09:53:40;;;;;;;0.80;0.80;;;4.60;1.00;;;;;;5015976;28;20204;-83
2023/12/06 09:56:08;;;;;;;0.70;0.70;;;4.60;1.00;;;;;;5015949;28;20246;-85
2023/12/06 09:58:34;;;;;;;0.70;0.70;;;4.50;1.00;;;;;;5016370;28;20196;-85
2023/12/06 10:01:01;;;;;;;0.80;0.80;;;4.60;1.00;;;;;;5018640;28;20560;-84
2023/12/06 10:03:27;;;;;;;0.80;0.80;;;4.50;1.00;;;;;;5037697;28;20203;-84
2023/12/06 10:05:59;;;;;;;0.80;0.80;;;4.80;1.00;;;;;;5036896;28;20207;-85
2023/12/06 10:08:25;;;;;;;0.70;0.70;;;4.60;1.00;;;;;;5037443;28;20176;-85
2023/12/06 10:11:08;;;;;;;0.80;0.80;;;4.60;1.00;;;;;;5036052;28;20188;-86
2023/12/06 10:13:38;;;;;;;0.70;0.70;;;4.50;1.00;;;;;;5020663;28;20235;-86
2023/12/06 10:16:13;;;;;;;0.80;0.80;;;4.60;1.00;;;;;;5019346;28;20208;-84
2023/12/06 10:18:40;;;;;;;0.70;0.70;;;4.50;1.00;;;;;;5014408;28;20224;-84
2023/12/06 10:21:06;;;;;;;0.90;0.90;;;4.50;1.00;;;;;;5016317;28;20252;-83
2023/12/06 10:23:31;;;;;;;0.80;0.80;;;4.70;1.00;;;;;;5033959;28;20264;-84
2023/12/06 10:25:57;;;;;;;0.80;0.80;;;4.70;1.00;;;;;;5038664;28;20204;-87
2023/12/06 10:28:23;;;;;;;0.80;0.80;;;4.70;1.00;;;;;;5027918;28;20223;-84
2023/12/06 10:31:03;;;;;;;0.83;0.83;;;4.50;1.00;;;;;;5019289;28;20180;-85
2023/12/06 10:33:30;;;;;;;0.70;0.70;;;4.60;1.00;;;;;;5016441;28;20204;-84
2023/12/06 10:35:58;;;;;;;0.80;0.80;;;4.50;1.00;;;;;;4999288;28;20208;-83
2023/12/06 10:38:25;;;;;;;0.73;0.73;;;4.70;1.00;;;;;;5001187;28;20181;-84
2023/12/06 10:40:51;;;;;;;0.70;0.70;;;4.50;1.00;;;;;;5010296;28;20242;-84
2023/12/06 10:43:19;;;;;;;0.70;0.70;;;4.50;1.00;;;;;;5020825;28;20176;-83
2023/12/06 10:45:46;;;;;;;0.70;0.70;;;4.50;1.00;;;;;;5020470;28;20193;-85
2023/12/06 10:48:11;;;;;;;0.80;0.80;;;4.50;1.00;;;;;;5003441;28;20263;-84
2023/12/06 10:50:38;;;;;;;0.70;0.70;;;5.30;1.00;;;;;;5019781;28;20274;-83
2023/12/06 10:53:05;;;;;;;0.80;0.80;;;4.40;1.00;;;;;;5000294;28;20603;-83
2023/12/06 10:55:32;;;;;;;0.87;0.87;;;4.40;1.00;;;;;;4999591;28;20199;-85
2023/12/06 10:58:00;;;;;;;0.87;0.87;;;4.40;1.00;;;;;;5001008;28;20223;-84
2023/12/06 11:00:26;;;;;;;0.80;0.80;;;4.40;1.00;;;;;;5018887;28;20259;-86
2023/12/06 11:02:53;;;;;;;0.70;0.70;;;4.30;1.00;;;;;;5017905;28;20208;-83
2023/12/06 11:05:21;;;;;;;0.70;0.70;;;4.50;1.00;;;;;;5019219;28;20192;-85
2023/12/06 11:08:11;;;;;;;0.80;0.80;;;4.60;1.00;;;;;;5019178;28;20555;-84
2023/12/06 11:10:56;;;;;;;0.80;0.80;;;4.60;1.00;;;;;;5014253;28;20177;-83
2023/12/06 11:13:42;;;;;;;0.67;0.67;;;4.60;1.00;;;;;;5014939;28;20204;-83
2023/12/06 11:16:42;;;;;;;0.80;0.80;;;4.50;1.00;;;;;;4997460;28;20200;-83
2023/12/06 11:19:09;;;;;;;0.80;0.80;;;4.60;1.00;;;;;;5017504;28;20188;-83
2023/12/06 11:21:36;;;;;;;0.70;0.70;;;4.70;1.00;;;;;;5020361;28;20181;-83
2023/12/06 11:24:02;;;;;;;0.80;0.80;;;4.70;1.00;;;;;;5017830;28;20172;-83
2023/12/06 11:26:31;;;;;;;0.70;0.70;;;4.70;1.00;;;;;;5017085;28;20222;-83
2023/12/06 11:28:57;;;;;;;0.70;0.70;;;4.70;1.00;;;;;;5021300;28;20662;-85
2023/12/06 11:31:37;;;;;;;0.80;0.80;;;4.70;1.00;;;;;;4998468;28;20187;-84
2023/12/06 11:34:05;;;;;;;0.70;0.70;;;4.60;1.00;;;;;;5017161;28;20183;-83
2023/12/06 11:36:30;;;;;;;0.70;0.70;;;4.50;1.00;;;;;;4998095;28;20204;-85
2023/12/06 11:38:56;;;;;;;0.80;0.80;;;4.60;1.00;;;;;;5017561;28;20177;-83
2023/12/06 11:41:21;;;;;;;0.80;0.80;;;4.70;1.00;;;;;;5019105;28;20196;-84
2023/12/06 11:43:52;;;;;;;0.70;0.70;;;4.50;1.00;;;;;;5017760;28;20176;-85
2023/12/06 11:46:20;;;;;;;0.73;0.73;;;4.60;1.00;;;;;;4999503;28;20295;-84
2023/12/06 11:48:48;;;;;;;0.70;0.70;;;4.50;1.00;;;;;;5024403;28;20257;-85
2023/12/06 11:51:28;;;;;;;0.80;0.80;;;4.60;1.00;;;;;;5031268;28;20177;-87
2023/12/06 11:53:55;;;;;;;0.70;0.70;;;4.60;1.00;;;;;;5025694;28;20188;-88
2023/12/06 11:56:25;;;;;;;0.80;0.80;;;4.50;1.00;;;;;;5038461;28;20300;-86
2023/12/06 11:58:51;;;;;;;0.80;0.80;;;4.60;1.00;;;;;;5039052;28;20169;-87
2023/12/06 12:01:22;;;;;;;0.70;0.70;;;4.60;1.00;;;;;;5037983;28;20180;-88
2023/12/06 12:03:49;;;;;;;0.80;0.80;;;4.60;1.00;;;;;;5023790;28;20184;-86
2023/12/06 12:06:20;;;;;;;0.73;0.73;;;4.60;1.00;;;;;;5019091;28;20212;-84
2023/12/06 12:08:47;;;;;;;0.70;0.70;;;4.60;1.00;;;;;;5019507;28;20188;-85
2023/12/06 12:11:17;;;;;;;0.73;0.73;;;4.60;1.00;;;;;;5019124;28;20184;-84
2023/12/06 12:13:43;;;;;;;0.70;0.70;;;4.60;1.00;;;;;;5019199;28;20674;-85
2023/12/06 12:16:10;;;;;;;0.60;0.60;;;4.60;1.00;;;;;;5018561;28;20200;-86
2023/12/06 12:18:37;;;;;;;0.70;0.70;;;4.60;1.00;;;;;;5018952;28;20590;-86
2023/12/06 12:21:07;;;;;;;0.73;0.73;;;4.60;1.00;;;;;;5001555;28;20176;-86
2023/12/06 12:23:33;;;;;;;0.70;0.70;;;4.60;1.00;;;;;;5019993;28;20595;-84
2023/12/06 12:25:59;;;;;;;0.80;0.80;;;4.70;1.00;;;;;;5030107;28;20244;-86
2023/12/06 12:28:24;;;;;;;0.70;0.70;;;4.40;1.00;;;;;;5028255;28;20547;-84
2023/12/06 12:31:05;;;;;;;0.83;0.83;;;4.50;1.00;;;;;;5018901;28;20192;-85
2023/12/06 12:33:32;;;;;;;0.90;0.90;;;4.40;1.00;;;;;;5019017;28;20334;-85
2023/12/06 12:35:59;;;;;;;0.77;0.77;;;4.40;1.00;;;;;;5017955;28;20576;-85
2023/12/06 12:38:26;;;;;;;0.80;0.80;;;4.50;1.00;;;;;;4999456;28;20168;-86
2023/12/06 12:40:52;;;;;;;0.70;0.70;;;4.60;1.00;;;;;;5016132;28;20177;-86
2023/12/06 12:43:18;;;;;;;0.70;0.70;;;4.60;1.00;;;;;;5016619;28;20179;-87
2023/12/06 12:45:43;;;;;;;0.70;0.70;;;4.50;1.00;;;;;;5015216;28;20319;-87
2023/12/06 12:48:09;;;;;;;0.80;0.80;;;4.60;1.00;;;;;;5015590;28;20264;-83
2023/12/06 12:50:37;;;;;;;0.70;0.70;;;4.60;1.00;;;;;;5016612;28;20192;-86
2023/12/06 12:53:03;;;;;;;0.80;0.80;;;4.50;1.00;;;;;;5015625;28;20223;-85
2023/12/06 12:55:28;;;;;;;0.80;0.80;;;4.50;1.00;;;;;;4997493;28;20576;-86
2023/12/06 12:57:56;;;;;;;0.80;0.80;;;4.50;1.00;;;;;;5017396;28;20176;-86